John_paul K — PBHY — position and weather

sailwx.info

Track history (hours):
 
Tides and Currents Weather Stations Pressure Air Temp Water Temp Dewpoint Dewpoint Depression Visibility Wind Speed Wind Dir Waves Ship Positions

John_paul K

Last reported at 2017-Jun-26 04:14 UTC. Time now 2017-Jun-27 14:02 UTC.
Position N 39°53' E 008°30'.

Length 90 m; draft 4.3 m.

Type: Cargo ship. MMSI: 245181000.

Date/timePositionNaut miles runAvg speedWind from/ knotsBaromVisibWave heightAir tempDewpointWater temp
2017-Jun-26 04:14N 39°53' E 008°30'1 4.0
2017-Jun-26 04:00N 39°52' E 008°29'1 0.8
2017-Jun-26 03:22N 39°52' E 008°28'0 0.1
2017-Jun-26 02:52N 39°52' E 008°28'0 0.0
2017-Jun-26 02:28N 39°52' E 008°28'0 0.0
2017-Jun-26 01:58N 39°52' E 008°28'0 0.0
2017-Jun-26 01:28N 39°52' E 008°28'0 0.0
2017-Jun-25 07:04N 39°52' E 008°28'0 0.0
2017-Jun-25 06:58N 39°52' E 008°28'185 9.6
2017-Jun-24 11:38N 38°40' E 004°48'110.6
2017-Jun-24 11:31N 38°39' E 004°47'510.5
2017-Jun-24 11:00N 38°37' E 004°40'810.6
2017-Jun-24 10:17N 38°34' E 004°31'310.5
2017-Jun-24 10:01N 38°33' E 004°28'510.3
2017-Jun-24 09:30N 38°31' E 004°22'510.2
2017-Jun-24 09:00N 38°29' E 004°16'510.2
2017-Jun-24 08:30N 38°27' E 004°10'510.2
2017-Jun-24 08:00N 38°25' E 004°04'510.2
2017-Jun-24 07:30N 38°23' E 003°58'510.2
2017-Jun-24 07:00N 38°22' E 003°52'611.9
2017-Jun-24 06:30N 38°19' E 003°45'612.0
2017-Jun-24 05:59N 38°17' E 003°37'510.5
2017-Jun-24 05:31N 38°15' E 003°31'710.4
2017-Jun-24 04:48N 38°12' E 003°23'310.4
2017-Jun-24 04:30N 38°11' E 003°19'510.4
2017-Jun-24 04:00N 38°09' E 003°13'510.5
2017-Jun-24 03:30N 38°07' E 003°07'510.6
2017-Jun-24 03:00N 38°05' E 003°01'510.7
2017-Jun-24 02:30N 38°03' E 002°54'510.5
2017-Jun-24 02:01N 38°01' E 002°48'510.4
2017-Jun-24 01:31N 37°59' E 002°42'510.2
2017-Jun-24 01:00N 37°57' E 002°36'5 9.9
2017-Jun-24 00:31N 37°55' E 002°30'510.0
2017-Jun-24 00:00N 37°53' E 002°25'610.0
2017-Jun-23 23:27N 37°51' E 002°18'410.1
2017-Jun-23 23:00N 37°49' E 002°13'510.2
2017-Jun-23 22:31N 37°47' E 002°07'610.3
2017-Jun-23 21:58N 37°45' E 002°00'610.3
2017-Jun-23 21:22N 37°43' E 001°53'610.3
2017-Jun-23 20:45N 37°41' E 001°46'410.5
2017-Jun-23 20:20N 37°39' E 001°41'1610.5
2017-Jun-23 18:52N 37°33' E 001°22'410.9
2017-Jun-23 18:30N 37°32' E 001°18'510.9
2017-Jun-23 18:00N 37°30' E 001°11'611.0
2017-Jun-23 17:30N 37°28' E 001°05'611.2
2017-Jun-23 17:00N 37°25' E 000°58'611.2
2017-Jun-23 16:30N 37°23' E 000°52'611.1
2017-Jun-23 16:00N 37°21' E 000°45'511.2
2017-Jun-23 15:30N 37°19' E 000°39'611.2
2017-Jun-23 15:00N 37°17' E 000°33'10 8.5
2017-Jun-23 13:51N 37°13' E 000°21'0 0.6
2017-Jun-23 13:30N 37°13' E 000°21'2 3.8
2017-Jun-23 13:00N 37°12' E 000°19'511.0
2017-Jun-23 12:30N 37°10' E 000°12'510.7
2017-Jun-23 12:00N 37°08' E 000°06'510.6
2017-Jun-23 11:30N 37°06' E 000°00'510.4
2017-Jun-23 11:00N 37°04' W 000°06'510.4
2017-Jun-23 10:30N 37°02' W 000°12'510.4
2017-Jun-23 10:00N 37°00' W 000°18'510.4
2017-Jun-23 09:30N 36°58' W 000°24'510.5
2017-Jun-23 09:00N 36°56' W 000°30'510.6
2017-Jun-23 08:30N 36°54' W 000°36'510.5
2017-Jun-23 08:00N 36°52' W 000°42'510.7
2017-Jun-23 07:30N 36°50' W 000°49'510.6
2017-Jun-23 07:00N 36°48' W 000°55'611.9
2017-Jun-23 06:30N 36°46' W 001°02'911.6
2017-Jun-23 05:43N 36°42' W 001°12'310.3
2017-Jun-23 05:25N 36°41' W 001°16'510.2
2017-Jun-23 04:56N 36°39' W 001°21'510.2
2017-Jun-23 04:26N 36°37' W 001°27'410.3
2017-Jun-23 04:00N 36°35' W 001°32'810.5
2017-Jun-23 03:13N 36°32' W 001°42'1910.6
2017-Jun-23 01:27N 36°25' W 002°03'15710.5
2017-Jun-22 10:28N 35°56' W 005°14'4 9.5
2017-Jun-22 10:00N 35°54' W 005°19'0 0.9
2017-Jun-22 09:30N 35°54' W 005°19'0 0.0
2017-Jun-22 09:00N 35°54' W 005°19'0 0.0
2017-Jun-22 08:29N 35°54' W 005°19'0 0.0
2017-Jun-22 07:59N 35°54' W 005°19'0 0.0
2017-Jun-22 07:29N 35°54' W 005°19'0 0.0
2017-Jun-22 06:59N 35°54' W 005°19'0 0.0
2017-Jun-22 06:26N 35°54' W 005°19'0 0.0
2017-Jun-22 06:00N 35°54' W 005°19'1 1.5
2017-Jun-22 05:30N 35°55' W 005°19'1 1.7
2017-Jun-22 05:00N 35°55' W 005°19'4 7.8
2017-Jun-22 04:30N 35°57' W 005°24'  
2017-Jun-19 01:09N 36°39' W 007°51'210.5
2017-Jun-19 01:00N 36°39' W 007°53'510.5
2017-Jun-19 00:29N 36°38' W 007°60'5 9.9
2017-Jun-19 00:00N 36°38' W 008°06'5410.4
2017-Jun-18 18:50N 36°34' W 009°12'310.4
2017-Jun-18 18:30N 36°35' W 009°16'1110.2
2017-Jun-18 17:26N 36°42' W 009°26'410.1
2017-Jun-18 17:00N 36°46' W 009°29'5 9.9
2017-Jun-18 16:30N 36°50' W 009°32'810.3
2017-Jun-18 15:45N 36°57' W 009°35'410.6
2017-Jun-18 15:25N 37°01' W 009°36'510.5
2017-Jun-18 14:55N 37°06' W 009°37'9 9.9
2017-Jun-18 14:00N 37°15' W 009°40'510.3
2017-Jun-18 13:30N 37°20' W 009°41'510.0
2017-Jun-18 13:00N 37°25' W 009°42'510.1
2017-Jun-18 12:30N 37°30' W 009°44'510.4
2017-Jun-18 12:00N 37°35' W 009°45'510.4
2017-Jun-18 11:30N 37°40' W 009°47'510.3
2017-Jun-18 11:00N 37°45' W 009°49'510.2
2017-Jun-18 10:30N 37°50' W 009°50'510.5
2017-Jun-18 10:00N 37°55' W 009°51'510.5
2017-Jun-18 09:30N 37°60' W 009°53'510.4
2017-Jun-18 09:00N 38°05' W 009°54'510.6
2017-Jun-18 08:30N 38°10' W 009°56'510.8
2017-Jun-18 08:00N 38°15' W 009°57'510.6
2017-Jun-18 07:30N 38°21' W 009°59'510.7
2017-Jun-18 07:00N 38°26' W 010°00'611.7
2017-Jun-18 06:30N 38°32' W 010°02'612.3
2017-Jun-18 06:00N 38°38' W 010°04'510.2
2017-Jun-18 05:30N 38°43' W 010°05'510.0
2017-Jun-18 05:00N 38°48' W 010°05'5 9.8
2017-Jun-18 04:30N 38°52' W 010°05'5 9.5
2017-Jun-18 04:00N 38°57' W 010°05'5 9.6
2017-Jun-18 03:30N 39°02' W 010°05'510.2
2017-Jun-18 03:00N 39°07' W 010°05'510.0
2017-Jun-18 02:30N 39°12' W 010°05'510.5
2017-Jun-18 02:00N 39°17' W 010°05'510.0
2017-Jun-18 01:30N 39°22' W 010°05'510.3
2017-Jun-18 01:00N 39°28' W 010°05'5 9.8
2017-Jun-18 00:30N 39°33' W 010°05'10 9.7
2017-Jun-17 23:30N 39°42' W 010°05'5 9.9
2017-Jun-17 22:59N 39°47' W 010°05'5 9.8
2017-Jun-17 22:27N 39°53' W 010°05'510.3
2017-Jun-17 22:00N 39°57' W 010°05'510.1
2017-Jun-17 21:30N 40°02' W 010°05'510.0
2017-Jun-17 21:00N 40°07' W 010°05'510.2
2017-Jun-17 20:30N 40°12' W 010°05'510.2
2017-Jun-17 20:00N 40°18' W 010°05'510.3
2017-Jun-17 19:30N 40°23' W 010°05'510.2
2017-Jun-17 19:00N 40°28' W 010°05'510.4
2017-Jun-17 18:30N 40°33' W 010°05'510.6
2017-Jun-17 18:00N 40°38' W 010°05'510.3
2017-Jun-17 17:30N 40°44' W 010°05'510.1
2017-Jun-17 17:00N 40°49' W 010°05'510.2
2017-Jun-17 16:29N 40°54' W 010°05'510.3
2017-Jun-17 16:00N 40°59' W 010°05'510.7
2017-Jun-17 15:30N 41°04' W 010°05'1810.4
2017-Jun-17 13:49N 41°22' W 010°05'710.4
2017-Jun-17 13:10N 41°28' W 010°05'30 9.9
2017-Jun-17 10:06N 41°59' W 010°05'210.7
2017-Jun-17 09:56N 42°01' W 010°05'  
Track history (hours):
 
Tides and Currents Weather Stations Pressure Air Temp Water Temp Dewpoint Dewpoint Depression Visibility Wind Speed Wind Dir Waves Ship Positions

John_paul K

Last reported at 2017-Jun-26 04:14 UTC. Time now 2017-Jun-27 14:02 UTC.
Position N 39°53' E 008°30'.

Length 90 m; draft 4.3 m.

Type: Cargo ship. MMSI: 245181000.

Date/timePositionNaut miles runAvg speedWind from/ knotsBaromVisibWave heightAir tempDewpointWater temp
2017-Jun-26 04:14N 39°53' E 008°30'1 4.0
2017-Jun-26 04:00N 39°52' E 008°29'1 0.8
2017-Jun-26 03:22N 39°52' E 008°28'0 0.1
2017-Jun-26 02:52N 39°52' E 008°28'0 0.0
2017-Jun-26 02:28N 39°52' E 008°28'0 0.0
2017-Jun-26 01:58N 39°52' E 008°28'0 0.0
2017-Jun-26 01:28N 39°52' E 008°28'0 0.0
2017-Jun-25 07:04N 39°52' E 008°28'0 0.0
2017-Jun-25 06:58N 39°52' E 008°28'185 9.6
2017-Jun-24 11:38N 38°40' E 004°48'110.6
2017-Jun-24 11:31N 38°39' E 004°47'510.5
2017-Jun-24 11:00N 38°37' E 004°40'810.6
2017-Jun-24 10:17N 38°34' E 004°31'310.5
2017-Jun-24 10:01N 38°33' E 004°28'510.3
2017-Jun-24 09:30N 38°31' E 004°22'510.2
2017-Jun-24 09:00N 38°29' E 004°16'510.2
2017-Jun-24 08:30N 38°27' E 004°10'510.2
2017-Jun-24 08:00N 38°25' E 004°04'510.2
2017-Jun-24 07:30N 38°23' E 003°58'510.2
2017-Jun-24 07:00N 38°22' E 003°52'611.9
2017-Jun-24 06:30N 38°19' E 003°45'612.0
2017-Jun-24 05:59N 38°17' E 003°37'510.5
2017-Jun-24 05:31N 38°15' E 003°31'710.4
2017-Jun-24 04:48N 38°12' E 003°23'310.4
2017-Jun-24 04:30N 38°11' E 003°19'510.4
2017-Jun-24 04:00N 38°09' E 003°13'510.5
2017-Jun-24 03:30N 38°07' E 003°07'510.6
2017-Jun-24 03:00N 38°05' E 003°01'510.7
2017-Jun-24 02:30N 38°03' E 002°54'510.5
2017-Jun-24 02:01N 38°01' E 002°48'510.4
2017-Jun-24 01:31N 37°59' E 002°42'510.2
2017-Jun-24 01:00N 37°57' E 002°36'5 9.9
2017-Jun-24 00:31N 37°55' E 002°30'510.0
2017-Jun-24 00:00N 37°53' E 002°25'610.0
2017-Jun-23 23:27N 37°51' E 002°18'410.1
2017-Jun-23 23:00N 37°49' E 002°13'510.2
2017-Jun-23 22:31N 37°47' E 002°07'610.3
2017-Jun-23 21:58N 37°45' E 002°00'610.3
2017-Jun-23 21:22N 37°43' E 001°53'610.3
2017-Jun-23 20:45N 37°41' E 001°46'410.5
2017-Jun-23 20:20N 37°39' E 001°41'1610.5
2017-Jun-23 18:52N 37°33' E 001°22'410.9
2017-Jun-23 18:30N 37°32' E 001°18'510.9
2017-Jun-23 18:00N 37°30' E 001°11'611.0
2017-Jun-23 17:30N 37°28' E 001°05'611.2
2017-Jun-23 17:00N 37°25' E 000°58'611.2
2017-Jun-23 16:30N 37°23' E 000°52'611.1
2017-Jun-23 16:00N 37°21' E 000°45'511.2
2017-Jun-23 15:30N 37°19' E 000°39'611.2
2017-Jun-23 15:00N 37°17' E 000°33'10 8.5
2017-Jun-23 13:51N 37°13' E 000°21'0 0.6
2017-Jun-23 13:30N 37°13' E 000°21'2 3.8
2017-Jun-23 13:00N 37°12' E 000°19'511.0
2017-Jun-23 12:30N 37°10' E 000°12'510.7
2017-Jun-23 12:00N 37°08' E 000°06'510.6
2017-Jun-23 11:30N 37°06' E 000°00'510.4
2017-Jun-23 11:00N 37°04' W 000°06'510.4
2017-Jun-23 10:30N 37°02' W 000°12'510.4
2017-Jun-23 10:00N 37°00' W 000°18'510.4
2017-Jun-23 09:30N 36°58' W 000°24'510.5
2017-Jun-23 09:00N 36°56' W 000°30'510.6
2017-Jun-23 08:30N 36°54' W 000°36'510.5
2017-Jun-23 08:00N 36°52' W 000°42'510.7
2017-Jun-23 07:30N 36°50' W 000°49'510.6
2017-Jun-23 07:00N 36°48' W 000°55'611.9
2017-Jun-23 06:30N 36°46' W 001°02'911.6
2017-Jun-23 05:43N 36°42' W 001°12'310.3
2017-Jun-23 05:25N 36°41' W 001°16'510.2
2017-Jun-23 04:56N 36°39' W 001°21'510.2
2017-Jun-23 04:26N 36°37' W 001°27'410.3
2017-Jun-23 04:00N 36°35' W 001°32'810.5
2017-Jun-23 03:13N 36°32' W 001°42'1910.6
2017-Jun-23 01:27N 36°25' W 002°03'15710.5
2017-Jun-22 10:28N 35°56' W 005°14'4 9.5
2017-Jun-22 10:00N 35°54' W 005°19'0 0.9
2017-Jun-22 09:30N 35°54' W 005°19'0 0.0
2017-Jun-22 09:00N 35°54' W 005°19'0 0.0
2017-Jun-22 08:29N 35°54' W 005°19'0 0.0
2017-Jun-22 07:59N 35°54' W 005°19'0 0.0
2017-Jun-22 07:29N 35°54' W 005°19'0 0.0
2017-Jun-22 06:59N 35°54' W 005°19'0 0.0
2017-Jun-22 06:26N 35°54' W 005°19'0 0.0
2017-Jun-22 06:00N 35°54' W 005°19'1 1.5
2017-Jun-22 05:30N 35°55' W 005°19'1 1.7
2017-Jun-22 05:00N 35°55' W 005°19'4 7.8
2017-Jun-22 04:30N 35°57' W 005°24'  
2017-Jun-19 01:09N 36°39' W 007°51'210.5
2017-Jun-19 01:00N 36°39' W 007°53'510.5
2017-Jun-19 00:29N 36°38' W 007°60'5 9.9
2017-Jun-19 00:00N 36°38' W 008°06'5410.4
2017-Jun-18 18:50N 36°34' W 009°12'310.4
2017-Jun-18 18:30N 36°35' W 009°16'1110.2
2017-Jun-18 17:26N 36°42' W 009°26'410.1
2017-Jun-18 17:00N 36°46' W 009°29'5 9.9
2017-Jun-18 16:30N 36°50' W 009°32'810.3
2017-Jun-18 15:45N 36°57' W 009°35'410.6
2017-Jun-18 15:25N 37°01' W 009°36'510.5
2017-Jun-18 14:55N 37°06' W 009°37'9 9.9
2017-Jun-18 14:00N 37°15' W 009°40'510.3
2017-Jun-18 13:30N 37°20' W 009°41'510.0
2017-Jun-18 13:00N 37°25' W 009°42'510.1
2017-Jun-18 12:30N 37°30' W 009°44'510.4
2017-Jun-18 12:00N 37°35' W 009°45'510.4
2017-Jun-18 11:30N 37°40' W 009°47'510.3
2017-Jun-18 11:00N 37°45' W 009°49'510.2
2017-Jun-18 10:30N 37°50' W 009°50'510.5
2017-Jun-18 10:00N 37°55' W 009°51'510.5
2017-Jun-18 09:30N 37°60' W 009°53'510.4
2017-Jun-18 09:00N 38°05' W 009°54'510.6
2017-Jun-18 08:30N 38°10' W 009°56'510.8
2017-Jun-18 08:00N 38°15' W 009°57'510.6
2017-Jun-18 07:30N 38°21' W 009°59'510.7
2017-Jun-18 07:00N 38°26' W 010°00'611.7
2017-Jun-18 06:30N 38°32' W 010°02'612.3
2017-Jun-18 06:00N 38°38' W 010°04'510.2
2017-Jun-18 05:30N 38°43' W 010°05'510.0
2017-Jun-18 05:00N 38°48' W 010°05'5 9.8
2017-Jun-18 04:30N 38°52' W 010°05'5 9.5
2017-Jun-18 04:00N 38°57' W 010°05'5 9.6
2017-Jun-18 03:30N 39°02' W 010°05'510.2
2017-Jun-18 03:00N 39°07' W 010°05'510.0
2017-Jun-18 02:30N 39°12' W 010°05'510.5
2017-Jun-18 02:00N 39°17' W 010°05'510.0
2017-Jun-18 01:30N 39°22' W 010°05'510.3
2017-Jun-18 01:00N 39°28' W 010°05'5 9.8
2017-Jun-18 00:30N 39°33' W 010°05'10 9.7
2017-Jun-17 23:30N 39°42' W 010°05'5 9.9
2017-Jun-17 22:59N 39°47' W 010°05'5 9.8
2017-Jun-17 22:27N 39°53' W 010°05'510.3
2017-Jun-17 22:00N 39°57' W 010°05'510.1
2017-Jun-17 21:30N 40°02' W 010°05'510.0
2017-Jun-17 21:00N 40°07' W 010°05'510.2
2017-Jun-17 20:30N 40°12' W 010°05'510.2
2017-Jun-17 20:00N 40°18' W 010°05'510.3
2017-Jun-17 19:30N 40°23' W 010°05'510.2
2017-Jun-17 19:00N 40°28' W 010°05'510.4
2017-Jun-17 18:30N 40°33' W 010°05'510.6
2017-Jun-17 18:00N 40°38' W 010°05'510.3
2017-Jun-17 17:30N 40°44' W 010°05'510.1
2017-Jun-17 17:00N 40°49' W 010°05'510.2
2017-Jun-17 16:29N 40°54' W 010°05'510.3
2017-Jun-17 16:00N 40°59' W 010°05'510.7
2017-Jun-17 15:30N 41°04' W 010°05'1810.4
2017-Jun-17 13:49N 41°22' W 010°05'710.4
2017-Jun-17 13:10N 41°28' W 010°05'30 9.9
2017-Jun-17 10:06N 41°59' W 010°05'210.7
2017-Jun-17 09:56N 42°01' W 010°05'  

Dump ship's entire track history